Time;durP1;ratioP1;P1;durP2;ratioP2;P2;SDS_P1;SDS_P2;PMS_P1;PMS_P2;Temp;Humidity;BMP_temperature;BMP_pressure;BME280_temperature;BME280_humidity;BME280_pressure;Samples;Min_cycle;Max_cycle;Signal;HPM_P1;HPM_P2
2023/12/10 09:39:31;;;;;;;11.13;4.00;;;5.60;99.90;;;;;;4926090;29;20494;-77
2023/12/10 09:41:57;;;;;;;11.63;4.50;;;5.70;99.90;;;;;;4935445;29;20464;-80
2023/12/10 09:44:24;;;;;;;13.13;4.33;;;5.70;99.90;;;;;;4929551;29;20530;-79
2023/12/10 09:46:51;;;;;;;10.13;4.27;;;5.80;99.90;;;;;;4911747;29;20496;-78
2023/12/10 09:49:18;;;;;;;11.73;4.17;;;5.90;99.90;;;;;;4913591;29;20470;-79
2023/12/10 09:51:46;;;;;;;19.80;3.80;;;6.00;99.90;;;;;;4906210;29;20492;-81
2023/12/10 09:54:13;;;;;;;11.83;4.03;;;6.10;99.90;;;;;;4914457;29;20542;-82
2023/12/10 09:56:41;;;;;;;10.03;4.50;;;6.20;99.90;;;;;;4914797;29;20922;-82
2023/12/10 09:59:08;;;;;;;12.77;3.63;;;6.20;99.90;;;;;;4913389;29;20524;-80
2023/12/10 10:01:35;;;;;;;16.30;4.30;;;6.30;99.90;;;;;;4913829;29;20464;-77
2023/12/10 10:04:03;;;;;;;23.07;4.47;;;6.40;99.90;;;;;;4911240;29;21043;-78
2023/12/10 10:06:30;;;;;;;10.30;4.20;;;6.40;99.90;;;;;;4907297;29;20880;-77
2023/12/10 10:08:56;;;;;;;17.30;4.80;;;6.50;99.90;;;;;;4909027;29;20495;-78
2023/12/10 10:11:23;;;;;;;18.63;5.10;;;6.60;99.90;;;;;;4912875;29;20543;-81
2023/12/10 10:13:52;;;;;;;17.87;4.67;;;6.60;99.90;;;;;;4907177;29;20501;-81
2023/12/10 10:16:19;;;;;;;11.57;3.50;;;6.70;99.90;;;;;;4913174;29;20568;-79
2023/12/10 10:18:48;;;;;;;16.73;4.37;;;6.70;99.90;;;;;;4913144;29;20469;-81
2023/12/10 10:21:14;;;;;;;14.27;4.30;;;6.70;99.90;;;;;;4912866;29;20525;-81
2023/12/10 10:23:42;;;;;;;17.00;4.40;;;6.70;99.90;;;;;;4912230;29;20468;-79
2023/12/10 10:26:10;;;;;;;18.00;5.13;;;6.70;99.90;;;;;;4916115;29;20498;-79
2023/12/10 10:28:37;;;;;;;16.60;4.90;;;6.70;99.90;;;;;;4913546;29;20962;-79
2023/12/10 10:31:05;;;;;;;15.00;4.67;;;6.70;99.90;;;;;;4910554;29;20488;-78
2023/12/10 10:33:32;;;;;;;14.20;3.17;;;6.70;99.90;;;;;;4912390;29;20471;-78
2023/12/10 10:36:00;;;;;;;15.23;5.00;;;6.70;99.90;;;;;;4912528;29;20464;-79
2023/12/10 10:38:28;;;;;;;17.40;4.47;;;6.70;99.90;;;;;;4912911;29;20605;-80
2023/12/10 10:40:56;;;;;;;18.47;5.17;;;6.70;99.90;;;;;;4915965;29;20464;-79
2023/12/10 10:43:23;;;;;;;17.23;4.53;;;6.70;99.90;;;;;;4912222;29;20492;-78
2023/12/10 10:45:49;;;;;;;22.73;5.83;;;6.70;99.90;;;;;;4908560;29;20922;-79
2023/12/10 10:48:17;;;;;;;21.37;4.70;;;6.80;99.90;;;;;;4909196;29;20475;-80
2023/12/10 10:50:45;;;;;;;11.03;3.60;;;6.80;99.90;;;;;;4910111;29;20480;-81
2023/12/10 10:53:13;;;;;;;12.00;4.07;;;6.80;99.90;;;;;;4908499;29;20575;-82
2023/12/10 10:55:40;;;;;;;18.57;4.37;;;6.80;99.90;;;;;;4910287;29;20547;-78
2023/12/10 10:58:27;;;;;;;14.37;4.30;;;6.70;99.90;;;;;;4912737;29;20468;-81
2023/12/10 11:00:54;;;;;;;17.40;4.50;;;6.80;99.90;;;;;;4910850;29;20464;-79
2023/12/10 11:03:26;;;;;;;21.60;5.40;;;6.80;99.90;;;;;;4910602;29;20456;-79
2023/12/10 11:05:55;;;;;;;15.00;4.57;;;6.80;99.90;;;;;;4912375;29;20468;-78
2023/12/10 11:08:24;;;;;;;13.03;4.20;;;6.80;99.90;;;;;;4912818;29;20481;-78
2023/12/10 11:10:59;;;;;;;15.73;3.77;;;6.80;99.90;;;;;;4916522;29;20484;-76
2023/12/10 11:13:44;;;;;;;12.67;4.30;;;6.80;99.90;;;;;;4912005;29;20472;-75
2023/12/10 11:16:11;;;;;;;19.63;3.83;;;6.80;99.90;;;;;;4915446;29;21066;-77
2023/12/10 11:18:52;;;;;;;15.07;3.67;;;6.80;99.90;;;;;;4908113;29;20485;-75
2023/12/10 11:21:18;;;;;;;14.50;3.60;;;6.80;99.90;;;;;;4912428;29;20436;-75
2023/12/10 11:23:45;;;;;;;19.03;4.63;;;6.80;99.90;;;;;;4915592;29;20927;-78
2023/12/10 11:26:12;;;;;;;14.27;3.80;;;6.80;99.90;;;;;;4919684;29;20539;-76
2023/12/10 11:28:38;;;;;;;13.07;4.30;;;6.80;99.90;;;;;;4920372;29;20460;-76
2023/12/10 11:31:05;;;;;;;17.17;4.50;;;6.80;99.90;;;;;;4915225;29;20895;-75
2023/12/10 11:33:31;;;;;;;13.13;3.77;;;6.80;99.90;;;;;;4918811;29;20514;-75
2023/12/10 11:36:00;;;;;;;9.00;3.33;;;6.80;99.90;;;;;;4916022;29;21051;-74
2023/12/10 11:38:26;;;;;;;11.63;3.73;;;6.80;99.90;;;;;;4915384;29;20464;-74
2023/12/10 11:40:53;;;;;;;9.00;4.00;;;6.80;99.90;;;;;;4915085;29;20993;-76
2023/12/10 11:43:20;;;;;;;16.87;4.50;;;6.90;99.90;;;;;;4913229;29;20445;-76
2023/12/10 11:45:46;;;;;;;9.47;3.30;;;6.80;99.90;;;;;;4915868;29;20527;-75
2023/12/10 11:48:13;;;;;;;14.20;4.87;;;6.80;99.90;;;;;;4911094;29;20946;-76
2023/12/10 11:50:40;;;;;;;9.07;3.20;;;6.80;99.90;;;;;;4913904;29;21035;-76
2023/12/10 11:53:08;;;;;;;14.63;4.00;;;6.80;99.90;;;;;;4915899;29;20463;-76
2023/12/10 11:55:35;;;;;;;12.67;3.97;;;6.80;99.90;;;;;;4910551;29;20481;-75
2023/12/10 11:58:01;;;;;;;14.63;3.70;;;6.80;99.90;;;;;;4914964;29;20503;-78
2023/12/10 12:00:28;;;;;;;25.70;4.30;;;6.80;99.90;;;;;;4915159;29;20448;-78
2023/12/10 12:02:55;;;;;;;13.67;3.97;;;6.80;99.90;;;;;;4915326;29;20488;-77
2023/12/10 12:05:21;;;;;;;16.03;3.83;;;6.80;99.90;;;;;;4914340;29;20487;-77
2023/12/10 12:07:50;;;;;;;13.03;3.83;;;6.80;99.90;;;;;;4912495;29;20460;-74
2023/12/10 12:10:18;;;;;;;17.87;5.37;;;6.80;99.90;;;;;;4908069;29;20917;-77
2023/12/10 12:12:46;;;;;;;9.03;3.83;;;6.80;99.90;;;;;;4915425;29;20495;-74
2023/12/10 12:15:14;;;;;;;14.93;3.87;;;6.70;99.90;;;;;;4909723;29;20573;-77
2023/12/10 12:17:43;;;;;;;13.80;3.67;;;6.80;99.90;;;;;;4915058;29;20460;-75
2023/12/10 12:20:17;;;;;;;11.20;4.10;;;6.80;99.90;;;;;;4914820;29;20453;-75
2023/12/10 12:22:43;;;;;;;12.33;3.53;;;6.80;99.90;;;;;;4915655;29;20468;-76
2023/12/10 12:25:10;;;;;;;15.43;4.50;;;6.70;99.90;;;;;;4910813;29;20990;-75
2023/12/10 12:27:38;;;;;;;15.17;4.10;;;6.80;99.90;;;;;;4913127;29;20874;-73
2023/12/10 12:30:06;;;;;;;14.20;3.93;;;6.70;99.90;;;;;;4909288;29;20472;-76
2023/12/10 12:32:33;;;;;;;10.10;2.90;;;6.70;99.90;;;;;;4911727;29;20575;-73
2023/12/10 12:35:00;;;;;;;12.03;3.30;;;6.70;99.90;;;;;;4909686;29;20499;-75
2023/12/10 12:37:27;;;;;;;9.97;2.93;;;6.70;99.90;;;;;;4911207;29;20534;-77
2023/12/10 12:39:56;;;;;;;6.87;2.67;;;6.70;99.90;;;;;;4913927;29;20461;-75
2023/12/10 12:42:23;;;;;;;18.90;3.47;;;6.70;99.90;;;;;;4908375;29;20516;-74
2023/12/10 12:44:52;;;;;;;13.47;3.27;;;6.70;99.90;;;;;;4913470;29;20550;-73
2023/12/10 12:47:19;;;;;;;6.60;2.87;;;6.70;99.90;;;;;;4914208;29;20887;-75
2023/12/10 12:49:45;;;;;;;8.90;2.77;;;6.70;99.90;;;;;;4918182;29;20452;-74
2023/12/10 12:52:13;;;;;;;11.00;3.30;;;6.70;99.90;;;;;;4912101;29;20555;-74
2023/12/10 12:54:39;;;;;;;16.20;2.93;;;6.70;99.90;;;;;;4920411;29;20773;-73
2023/12/10 12:57:06;;;;;;;14.93;3.20;;;6.70;99.90;;;;;;4916668;29;20484;-74
2023/12/10 12:59:33;;;;;;;7.23;2.73;;;6.70;99.90;;;;;;4916884;29;20448;-74
2023/12/10 13:02:01;;;;;;;15.80;3.57;;;6.70;99.90;;;;;;4915662;29;20492;-75
2023/12/10 13:04:28;;;;;;;6.30;2.63;;;6.60;99.90;;;;;;4915084;29;20532;-74
2023/12/10 13:06:54;;;;;;;9.83;2.83;;;6.60;99.90;;;;;;4916059;29;20464;-76
2023/12/10 13:09:21;;;;;;;9.77;3.10;;;6.70;99.90;;;;;;4911762;29;20448;-75
2023/12/10 13:11:48;;;;;;;14.80;5.97;;;6.70;99.90;;;;;;4914918;29;20825;-75
2023/12/10 13:14:15;;;;;;;12.30;4.60;;;6.70;99.90;;;;;;4915529;29;20463;-75
2023/12/10 13:16:43;;;;;;;9.77;3.60;;;6.70;99.90;;;;;;4914645;29;21208;-74
2023/12/10 13:19:11;;;;;;;9.43;4.20;;;6.70;99.90;;;;;;4917933;29;20456;-74
2023/12/10 13:21:37;;;;;;;13.07;4.23;;;6.70;99.90;;;;;;4921192;29;20448;-76
2023/12/10 13:24:05;;;;;;;7.17;2.60;;;6.70;99.90;;;;;;4921809;29;20448;-76
2023/12/10 13:26:31;;;;;;;11.77;3.13;;;6.70;99.90;;;;;;4922009;29;20531;-75
2023/12/10 13:28:58;;;;;;;5.67;2.67;;;6.70;99.90;;;;;;4919735;29;21124;-76
2023/12/10 13:31:24;;;;;;;11.40;3.33;;;6.70;99.90;;;;;;4918780;29;20528;-75
2023/12/10 13:33:51;;;;;;;6.87;2.80;;;6.70;99.90;;;;;;4922438;29;20503;-75
2023/12/10 13:36:19;;;;;;;6.87;2.50;;;6.70;99.90;;;;;;4922008;29;20535;-76
2023/12/10 13:38:46;;;;;;;8.00;3.33;;;6.80;99.90;;;;;;4919349;29;20934;-77
2023/12/10 13:41:13;;;;;;;10.00;3.23;;;6.80;99.90;;;;;;4917996;29;20452;-74
2023/12/10 13:43:39;;;;;;;5.60;2.20;;;6.80;99.90;;;;;;4922832;29;20441;-75
2023/12/10 13:46:07;;;;;;;9.00;2.70;;;6.80;99.90;;;;;;4922608;29;20468;-74
2023/12/10 13:48:34;;;;;;;6.27;2.57;;;6.70;99.90;;;;;;4931694;29;20837;-76
2023/12/10 13:51:00;;;;;;;10.13;2.63;;;6.80;99.90;;;;;;4929188;29;20926;-74
2023/12/10 13:53:28;;;;;;;5.10;2.20;;;6.80;99.90;;;;;;4930499;29;20452;-75
2023/12/10 13:55:55;;;;;;;3.13;2.37;;;6.70;99.90;;;;;;4921904;29;20476;-75
2023/12/10 13:58:22;;;;;;;8.40;2.60;;;6.70;99.90;;;;;;4923012;29;20930;-77
2023/12/10 14:00:49;;;;;;;4.60;1.97;;;6.70;99.90;;;;;;4918092;29;20796;-77
2023/12/10 14:03:16;;;;;;;5.40;1.87;;;6.80;99.90;;;;;;4916444;29;20449;-75
2023/12/10 14:05:43;;;;;;;2.83;2.03;;;6.80;99.90;;;;;;4916576;29;20492;-75
2023/12/10 14:08:09;;;;;;;8.80;2.80;;;6.70;99.90;;;;;;4912286;29;20454;-76
2023/12/10 14:10:37;;;;;;;5.20;2.07;;;6.80;99.90;;;;;;4918054;29;20448;-75
2023/12/10 14:13:04;;;;;;;4.07;2.80;;;6.80;99.90;;;;;;4917841;29;20500;-76
2023/12/10 14:15:30;;;;;;;5.40;2.27;;;6.80;99.90;;;;;;4916443;29;20512;-74
2023/12/10 14:17:57;;;;;;;5.27;2.43;;;6.80;99.90;;;;;;4917131;29;20878;-75
2023/12/10 14:20:23;;;;;;;4.40;2.33;;;6.80;99.90;;;;;;4917708;29;20512;-76
2023/12/10 14:22:50;;;;;;;5.73;2.77;;;6.80;99.90;;;;;;4917657;29;20456;-78
2023/12/10 14:25:17;;;;;;;4.40;2.87;;;6.80;99.90;;;;;;4913494;29;20469;-76
2023/12/10 14:27:46;;;;;;;4.80;2.70;;;6.80;99.90;;;;;;4917182;29;20461;-75
2023/12/10 14:30:13;;;;;;;9.50;3.00;;;6.80;99.90;;;;;;4918157;29;20723;-75
2023/12/10 14:32:41;;;;;;;4.87;2.63;;;6.80;99.90;;;;;;4918534;29;20492;-78
2023/12/10 14:35:08;;;;;;;5.53;2.47;;;6.80;99.90;;;;;;4923385;29;20499;-76
2023/12/10 14:37:34;;;;;;;6.20;2.47;;;6.90;99.90;;;;;;4924874;29;20472;-77
2023/12/10 14:40:01;;;;;;;5.00;2.70;;;6.80;99.90;;;;;;4922459;29;20453;-74
2023/12/10 14:42:28;;;;;;;3.83;2.67;;;6.80;99.90;;;;;;4917374;29;20448;-74
2023/12/10 14:44:55;;;;;;;4.90;3.17;;;6.90;99.90;;;;;;4917674;29;20476;-77
2023/12/10 14:47:23;;;;;;;5.60;2.70;;;6.80;99.90;;;;;;4916415;29;20871;-76
2023/12/10 14:49:49;;;;;;;7.33;2.87;;;6.80;99.90;;;;;;4915844;29;20476;-76
2023/12/10 14:52:16;;;;;;;3.97;2.53;;;6.90;99.90;;;;;;4921821;29;20840;-75
2023/12/10 14:54:43;;;;;;;6.23;3.40;;;6.90;99.90;;;;;;4916660;29;20871;-76
2023/12/10 14:57:09;;;;;;;5.60;3.30;;;6.90;99.90;;;;;;4917497;29;20453;-78
2023/12/10 14:59:36;;;;;;;6.77;3.20;;;6.90;99.90;;;;;;4912312;29;20449;-78
2023/12/10 15:02:04;;;;;;;4.30;3.47;;;6.90;99.90;;;;;;4914789;29;20500;-77
2023/12/10 15:04:31;;;;;;;5.40;2.70;;;6.80;99.90;;;;;;4916342;29;20951;-78
2023/12/10 15:06:57;;;;;;;7.47;3.83;;;6.90;99.90;;;;;;4915186;29;20523;-79
2023/12/10 15:09:24;;;;;;;9.00;3.70;;;6.90;99.90;;;;;;4910496;29;20456;-78
2023/12/10 15:11:50;;;;;;;10.03;3.63;;;6.90;99.90;;;;;;4917228;29;20874;-78
2023/12/10 15:14:17;;;;;;;8.73;4.10;;;6.90;99.90;;;;;;4918304;29;20483;-78
2023/12/10 15:16:44;;;;;;;9.37;3.30;;;6.90;99.90;;;;;;4920931;29;20488;-77
2023/12/10 15:19:12;;;;;;;11.20;3.40;;;6.90;99.90;;;;;;4914863;29;20540;-76
2023/12/10 15:21:38;;;;;;;6.60;3.40;;;6.90;99.90;;;;;;4920568;29;20496;-78
2023/12/10 15:24:05;;;;;;;6.53;2.80;;;6.80;99.90;;;;;;4917271;29;20452;-77
2023/12/10 15:26:32;;;;;;;7.90;2.90;;;6.80;99.90;;;;;;4915004;29;20468;-76
2023/12/10 15:28:58;;;;;;;9.83;3.70;;;6.80;99.90;;;;;;4916956;29;20448;-77
2023/12/10 15:31:25;;;;;;;7.63;3.20;;;6.90;99.90;;;;;;4917600;29;20452;-77
2023/12/10 15:33:51;;;;;;;7.90;2.80;;;6.90;99.90;;;;;;4914764;29;20524;-76
2023/12/10 15:36:21;;;;;;;7.63;2.93;;;6.90;99.90;;;;;;4938614;23;20506;-76
2023/12/10 15:38:48;;;;;;;7.50;2.93;;;6.90;99.90;;;;;;4945874;28;20506;-74
2023/12/10 15:41:14;;;;;;;5.77;2.60;;;6.90;99.90;;;;;;4940434;29;20534;-76
2023/12/10 15:43:41;;;;;;;5.03;2.77;;;6.90;99.90;;;;;;4934254;29;20455;-75
2023/12/10 15:46:08;;;;;;;5.80;2.30;;;6.90;99.90;;;;;;4927206;29;20472;-74
2023/12/10 15:48:34;;;;;;;5.70;2.43;;;6.90;99.90;;;;;;4917182;29;20472;-75
2023/12/10 15:51:01;;;;;;;4.37;2.20;;;6.80;99.90;;;;;;4914192;29;20943;-75
2023/12/10 15:53:29;;;;;;;5.50;2.90;;;6.90;99.90;;;;;;4918092;29;20496;-76
2023/12/10 15:55:57;;;;;;;8.30;3.60;;;6.80;99.90;;;;;;4917922;29;20476;-77
2023/12/10 15:58:23;;;;;;;6.60;2.97;;;6.90;99.90;;;;;;4917513;29;20547;-77
2023/12/10 16:00:53;;;;;;;6.57;3.37;;;6.80;99.90;;;;;;4917644;29;20471;-77
2023/12/10 16:03:22;;;;;;;9.63;3.37;;;6.90;99.90;;;;;;4915605;29;20448;-76
2023/12/10 16:05:48;;;;;;;8.67;3.40;;;6.90;99.90;;;;;;4916581;29;20547;-75
2023/12/10 16:08:15;;;;;;;11.33;4.27;;;6.90;99.90;;;;;;4917469;29;20456;-75
2023/12/10 16:10:43;;;;;;;5.73;3.47;;;6.90;99.90;;;;;;4917828;29;20448;-75
2023/12/10 16:13:09;;;;;;;7.47;3.60;;;6.90;99.90;;;;;;4916314;29;20484;-76
2023/12/10 16:15:36;;;;;;;8.80;3.10;;;6.90;99.90;;;;;;4922430;29;20990;-76
2023/12/10 16:18:03;;;;;;;8.20;3.23;;;6.90;99.90;;;;;;4916250;29;20881;-75
2023/12/10 16:20:29;;;;;;;4.80;2.90;;;6.90;99.90;;;;;;4913144;29;20468;-75
2023/12/10 16:22:56;;;;;;;3.40;2.60;;;6.90;99.90;;;;;;4910392;29;20549;-75
2023/12/10 16:25:22;;;;;;;4.27;2.40;;;6.90;99.90;;;;;;4916741;29;20528;-77
2023/12/10 16:27:50;;;;;;;3.83;2.17;;;6.90;99.90;;;;;;4918462;29;20512;-77
2023/12/10 16:30:17;;;;;;;8.00;2.70;;;6.90;99.90;;;;;;4920654;29;20516;-77
2023/12/10 16:32:44;;;;;;;5.57;2.90;;;7.00;99.90;;;;;;4911725;29;20493;-77
2023/12/10 16:35:10;;;;;;;9.53;2.90;;;7.00;99.90;;;;;;4918915;29;20498;-76
2023/12/10 16:37:37;;;;;;;23.83;13.30;;;7.00;99.90;;;;;;4917218;29;20474;-78
2023/12/10 16:40:04;;;;;;;3.33;2.40;;;6.90;99.90;;;;;;4926699;29;20464;-77
2023/12/10 16:42:31;;;;;;;4.63;2.30;;;7.00;99.90;;;;;;4921191;29;20456;-75
2023/12/10 16:44:59;;;;;;;10.93;2.93;;;7.00;99.90;;;;;;4918708;29;20492;-76
2023/12/10 16:47:26;;;;;;;6.40;3.23;;;7.00;99.90;;;;;;4916952;29;20489;-76
2023/12/10 16:49:53;;;;;;;6.87;2.60;;;7.00;99.90;;;;;;4911486;29;20476;-78
2023/12/10 16:52:19;;;;;;;5.23;2.40;;;7.00;99.90;;;;;;4921508;29;20932;-76
2023/12/10 16:54:46;;;;;;;8.70;3.43;;;7.00;99.90;;;;;;4916034;29;20476;-74
2023/12/10 16:57:12;;;;;;;7.73;3.37;;;7.00;99.90;;;;;;4914813;29;21114;-74
2023/12/10 16:59:39;;;;;;;9.37;3.57;;;7.00;99.90;;;;;;4910396;29;20463;-75
2023/12/10 17:02:09;;;;;;;8.87;3.50;;;7.00;99.90;;;;;;4913661;29;20904;-76
2023/12/10 17:04:35;;;;;;;5.30;2.70;;;7.00;99.90;;;;;;4919959;29;20962;-75
2023/12/10 17:07:02;;;;;;;5.43;3.07;;;7.10;99.90;;;;;;4904155;29;20476;-76
2023/12/10 17:09:28;;;;;;;10.40;4.17;;;7.10;99.90;;;;;;4911577;29;20555;-74
2023/12/10 17:11:56;;;;;;;9.10;3.37;;;7.10;99.90;;;;;;4910885;29;20470;-75
2023/12/10 17:14:23;;;;;;;8.50;4.57;;;7.10;99.90;;;;;;4912396;29;20550;-75
2023/12/10 17:16:51;;;;;;;14.33;5.60;;;7.10;99.90;;;;;;4911729;29;20551;-75
2023/12/10 17:19:19;;;;;;;7.53;3.27;;;7.10;99.90;;;;;;4906877;29;20842;-76
2023/12/10 17:21:46;;;;;;;7.43;5.30;;;7.10;27.50;;;;;;4910831;29;20473;-77
2023/12/10 17:24:16;;;;;;;8.13;3.00;;;7.00;25.80;;;;;;4912523;29;20460;-76
2023/12/10 17:26:43;;;;;;;6.37;2.87;;;7.00;25.30;;;;;;4913767;29;20547;-77
2023/12/10 17:29:09;;;;;;;8.47;2.63;;;7.00;25.50;;;;;;4914987;29;20475;-74
2023/12/10 17:31:36;;;;;;;9.50;3.37;;;7.00;26.90;;;;;;4913939;29;20468;-75
2023/12/10 17:34:02;;;;;;;7.40;3.43;;;7.00;26.70;;;;;;4913954;29;20484;-74
2023/12/10 17:36:31;;;;;;;11.03;3.90;;;7.00;24.80;;;;;;4918261;29;20854;-75
2023/12/10 17:38:58;;;;;;;6.23;3.13;;;7.00;23.60;;;;;;4912486;29;20926;-76
2023/12/10 17:41:25;;;;;;;6.47;3.30;;;6.90;80.20;;;;;;4910512;29;20468;-77
2023/12/10 17:43:51;;;;;;;6.00;2.97;;;7.00;22.10;;;;;;4913361;29;20468;-77
2023/12/10 17:46:18;;;;;;;6.50;2.60;;;7.00;23.00;;;;;;4911667;29;20488;-76
2023/12/10 17:48:46;;;;;;;4.33;2.73;;;6.90;82.00;;;;;;4920676;29;20494;-76
2023/12/10 17:51:13;;;;;;;9.10;2.87;;;6.90;97.20;;;;;;4913822;29;20469;-76
2023/12/10 17:53:41;;;;;;;5.63;2.53;;;6.90;99.90;;;;;;4914686;29;20551;-74
2023/12/10 17:56:09;;;;;;;4.73;2.43;;;6.90;99.90;;;;;;4914206;29;20488;-76
2023/12/10 17:58:35;;;;;;;7.33;2.67;;;6.90;99.90;;;;;;4913640;29;20456;-76
2023/12/10 18:01:02;;;;;;;9.93;3.30;;;7.00;99.90;;;;;;4914412;29;20459;-76
2023/12/10 18:03:28;;;;;;;5.53;3.10;;;6.90;86.60;;;;;;4913163;29;20563;-76
2023/12/10 18:05:55;;;;;;;8.53;2.90;;;6.90;95.00;;;;;;4910246;29;20574;-76
2023/12/10 18:08:22;;;;;;;13.47;2.83;;;6.90;99.90;;;;;;4910526;29;20496;-78
2023/12/10 18:10:50;;;;;;;8.60;4.00;;;7.00;99.90;;;;;;4914116;29;20540;-78
2023/12/10 18:13:16;;;;;;;11.23;4.83;;;6.90;84.50;;;;;;4914890;29;20555;-78
2023/12/10 18:15:43;;;;;;;13.50;3.53;;;7.00;76.00;;;;;;4911976;29;20543;-75
2023/12/10 18:18:09;;;;;;;8.07;2.73;;;7.00;24.90;;;;;;4913503;29;20497;-76
2023/12/10 18:20:36;;;;;;;6.23;2.63;;;7.00;25.70;;;;;;4920976;29;20467;-78
2023/12/10 18:23:03;;;;;;;9.53;3.43;;;6.90;26.60;;;;;;4932889;29;20464;-77
2023/12/10 18:25:29;;;;;;;12.07;4.57;;;7.00;28.40;;;;;;4929823;29;20480;-77
2023/12/10 18:27:57;;;;;;;7.87;3.70;;;7.00;28.20;;;;;;4930133;29;20471;-76
2023/12/10 18:30:28;;;;;;;8.40;4.20;;;6.90;28.40;;;;;;4923608;29;20818;-82
2023/12/10 18:32:54;;;;;;;11.57;4.00;;;7.00;28.90;;;;;;4910602;29;20575;-75
2023/12/10 18:35:22;;;;;;;7.40;4.20;;;6.90;32.60;;;;;;4913272;29;20499;-75
2023/12/10 18:37:49;;;;;;;12.77;4.80;;;6.90;32.10;;;;;;4911944;29;20478;-77
2023/12/10 18:40:16;;;;;;;8.20;3.27;;;6.90;31.20;;;;;;4911425;29;20469;-77
2023/12/10 18:42:43;;;;;;;8.00;4.50;;;6.80;29.60;;;;;;4912129;29;20839;-77
2023/12/10 18:45:11;;;;;;;10.60;4.87;;;6.90;28.50;;;;;;4911439;29;20539;-75
2023/12/10 18:47:38;;;;;;;7.17;3.63;;;6.80;30.90;;;;;;4910050;29;21038;-76
2023/12/10 18:50:05;;;;;;;11.40;3.63;;;6.80;36.10;;;;;;4909983;29;20492;-76
2023/12/10 18:52:32;;;;;;;8.63;3.13;;;6.80;38.10;;;;;;4910549;29;20496;-75
2023/12/10 18:54:59;;;;;;;10.83;3.63;;;6.80;44.90;;;;;;4912346;29;20480;-76
2023/12/10 18:57:26;;;;;;;12.77;3.97;;;6.80;47.50;;;;;;4911912;29;20464;-78
2023/12/10 18:59:52;;;;;;;10.63;3.13;;;6.80;52.30;;;;;;4910864;29;21007;-76
2023/12/10 19:02:21;;;;;;;6.63;3.00;;;6.80;66.00;;;;;;4913971;29;20468;-75
2023/12/10 19:04:47;;;;;;;6.97;2.33;;;6.90;72.80;;;;;;4916049;29;20971;-77
2023/12/10 19:07:14;;;;;;;8.40;2.77;;;7.00;92.10;;;;;;4911633;29;20547;-76
2023/12/10 19:09:44;;;;;;;6.33;2.63;;;6.90;82.50;;;;;;4908832;29;20492;-75
2023/12/10 19:12:10;;;;;;;7.77;3.90;;;6.90;91.60;;;;;;4912406;29;20994;-75
2023/12/10 19:14:37;;;;;;;8.83;3.87;;;6.90;90.70;;;;;;4905159;29;20485;-75
2023/12/10 19:17:04;;;;;;;6.90;3.20;;;6.90;91.30;;;;;;4912302;29;20535;-76
2023/12/10 19:19:32;;;;;;;12.57;3.07;;;6.90;98.60;;;;;;4913359;29;20468;-77
2023/12/10 19:21:58;;;;;;;8.03;3.20;;;6.90;99.90;;;;;;4909458;29;20468;-75
2023/12/10 19:24:25;;;;;;;7.60;3.17;;;7.00;99.90;;;;;;4904718;29;20468;-76
2023/12/10 19:26:52;;;;;;;13.87;4.70;;;7.00;99.90;;;;;;4905733;29;20500;-77
2023/12/10 19:29:18;;;;;;;12.23;3.63;;;7.00;99.90;;;;;;4913144;29;20468;-77
2023/12/10 19:31:45;;;;;;;11.97;3.20;;;7.00;99.90;;;;;;4905414;29;20460;-76
2023/12/10 19:34:12;;;;;;;7.97;3.20;;;7.00;99.90;;;;;;4903963;29;20492;-75
2023/12/10 19:36:40;;;;;;;7.50;3.43;;;7.10;99.90;;;;;;4915210;29;20503;-76
2023/12/10 19:39:06;;;;;;;10.17;3.93;;;7.10;99.90;;;;;;4896900;29;20472;-76
2023/12/10 19:41:33;;;;;;;10.53;4.00;;;7.10;99.90;;;;;;4905988;29;20559;-76
2023/12/10 19:44:00;;;;;;;8.63;4.40;;;7.10;99.90;;;;;;4905919;29;20460;-78
2023/12/10 19:46:26;;;;;;;15.83;5.03;;;7.20;99.90;;;;;;4909124;29;20761;-78
2023/12/10 19:48:53;;;;;;;8.10;3.97;;;7.20;99.90;;;;;;4909635;29;20472;-78
2023/12/10 19:51:19;;;;;;;18.20;4.40;;;7.10;99.90;;;;;;4910861;29;20468;-77
2023/12/10 19:53:48;;;;;;;12.13;4.20;;;7.20;99.90;;;;;;4910506;29;20489;-77
2023/12/10 19:56:14;;;;;;;15.60;4.43;;;7.10;99.90;;;;;;4906143;29;20488;-76
2023/12/10 19:58:41;;;;;;;18.47;4.83;;;7.20;99.90;;;;;;4907817;29;20521;-77
2023/12/10 20:01:07;;;;;;;15.87;4.57;;;7.20;99.90;;;;;;4898107;29;20475;-76
2023/12/10 20:03:34;;;;;;;12.93;5.73;;;7.20;99.90;;;;;;4911299;29;20464;-77
2023/12/10 20:06:02;;;;;;;19.63;5.60;;;7.20;99.90;;;;;;4902111;29;20489;-76
2023/12/10 20:08:30;;;;;;;14.80;4.80;;;7.20;99.90;;;;;;4909227;29;20647;-74
2023/12/10 20:10:58;;;;;;;13.20;4.30;;;7.30;99.90;;;;;;4909317;29;20558;-76
2023/12/10 20:13:25;;;;;;;14.70;3.90;;;7.20;99.90;;;;;;4904769;29;20491;-76
2023/12/10 20:15:51;;;;;;;7.50;3.53;;;7.20;99.90;;;;;;4902507;29;21105;-77
2023/12/10 20:18:18;;;;;;;10.50;3.70;;;7.20;99.90;;;;;;4907751;29;20468;-77
2023/12/10 20:20:48;;;;;;;19.10;3.60;;;7.20;99.90;;;;;;4906937;29;20814;-77
2023/12/10 20:23:15;;;;;;;11.43;3.97;;;7.10;99.90;;;;;;4903595;29;20478;-77
2023/12/10 20:25:42;;;;;;;9.20;3.30;;;7.10;99.90;;;;;;4906474;29;20492;-76
2023/12/10 20:28:11;;;;;;;15.17;4.63;;;7.10;99.90;;;;;;4908773;29;20475;-78
2023/12/10 20:30:41;;;;;;;20.43;4.30;;;7.00;99.90;;;;;;4909619;29;20468;-78
2023/12/10 20:33:08;;;;;;;14.00;4.50;;;7.00;99.90;;;;;;4904342;29;20991;-77
2023/12/10 20:35:34;;;;;;;14.70;5.53;;;7.00;99.90;;;;;;4904463;29;20522;-75
2023/12/10 20:38:01;;;;;;;16.63;6.37;;;6.90;99.90;;;;;;4905022;29;20467;-76
2023/12/10 20:40:28;;;;;;;13.57;4.50;;;6.90;99.90;;;;;;4911061;29;20865;-76
2023/12/10 20:42:55;;;;;;;21.10;5.97;;;6.80;99.90;;;;;;4904162;29;20523;-76
2023/12/10 20:45:22;;;;;;;14.50;5.10;;;6.90;99.90;;;;;;4901412;29;20536;-76
2023/12/10 20:47:51;;;;;;;16.13;4.97;;;6.80;99.90;;;;;;4914212;29;20559;-75
2023/12/10 20:50:17;;;;;;;14.40;5.07;;;6.80;99.90;;;;;;4912563;29;20546;-76
2023/12/10 20:52:44;;;;;;;18.10;5.77;;;6.80;99.90;;;;;;4910689;29;20499;-76
2023/12/10 20:55:11;;;;;;;12.63;4.30;;;6.70;99.90;;;;;;4895748;29;20492;-75
2023/12/10 20:57:37;;;;;;;14.27;4.27;;;6.70;99.90;;;;;;4912456;29;20521;-76
2023/12/10 21:00:05;;;;;;;12.97;4.10;;;6.70;99.90;;;;;;4912839;29;20950;-77
2023/12/10 21:02:34;;;;;;;11.70;4.13;;;6.70;99.90;;;;;;4914826;29;20523;-76
2023/12/10 21:05:00;;;;;;;9.33;3.77;;;6.70;99.90;;;;;;4912688;29;20816;-77
2023/12/10 21:07:27;;;;;;;18.33;5.57;;;6.70;99.90;;;;;;4914376;29;20544;-77
2023/12/10 21:09:54;;;;;;;12.87;4.03;;;6.60;99.90;;;;;;4908971;29;21081;-77
2023/12/10 21:12:20;;;;;;;14.00;4.80;;;6.60;99.90;;;;;;4906741;29;21005;-76
2023/12/10 21:14:47;;;;;;;21.90;5.33;;;6.60;99.90;;;;;;4905936;29;20515;-77
2023/12/10 21:17:13;;;;;;;10.57;4.40;;;6.60;99.90;;;;;;4906194;29;20524;-78
2023/12/10 21:19:41;;;;;;;14.87;4.53;;;6.60;99.90;;;;;;4919309;29;20508;-77
2023/12/10 21:22:08;;;;;;;14.63;5.00;;;6.60;99.90;;;;;;4903270;29;20481;-76
2023/12/10 21:24:35;;;;;;;16.40;4.63;;;6.70;99.90;;;;;;4912885;29;20492;-77
2023/12/10 21:27:02;;;;;;;11.17;4.00;;;6.70;99.90;;;;;;4910724;29;20843;-77
2023/12/10 21:29:29;;;;;;;17.67;4.43;;;6.70;99.90;;;;;;4907893;29;20471;-77
2023/12/10 21:31:56;;;;;;;15.77;4.20;;;6.70;99.90;;;;;;4912492;29;20472;-78
2023/12/10 21:34:22;;;;;;;21.83;5.00;;;6.70;99.90;;;;;;4909105;29;20487;-77
2023/12/10 21:36:51;;;;;;;15.03;4.37;;;6.60;99.90;;;;;;4931835;23;20564;-72
2023/12/10 21:39:18;;;;;;;18.57;5.53;;;6.70;99.90;;;;;;4925611;29;21322;-70
2023/12/10 21:41:44;;;;;;;14.20;4.00;;;6.70;99.90;;;;;;4906892;29;21049;-71
2023/12/10 21:44:11;;;;;;;15.90;4.30;;;6.70;99.90;;;;;;4920335;29;20456;-72
2023/12/10 21:46:38;;;;;;;15.27;3.90;;;6.70;99.90;;;;;;4943007;29;20551;-72
2023/12/10 21:49:05;;;;;;;15.80;5.20;;;6.70;99.90;;;;;;4949610;29;20479;-71
2023/12/10 21:51:31;;;;;;;13.40;4.30;;;6.70;99.90;;;;;;4941243;28;20496;-71
2023/12/10 21:54:03;;;;;;;13.73;4.63;;;6.70;99.90;;;;;;4948418;29;20572;-72
2023/12/10 21:56:29;;;;;;;13.57;4.40;;;6.70;99.90;;;;;;4935537;29;20615;-70
2023/12/10 21:58:56;;;;;;;13.43;3.90;;;6.70;99.90;;;;;;4934444;29;20462;-70
2023/12/10 22:01:22;;;;;;;12.33;3.73;;;6.70;99.90;;;;;;4934643;29;20455;-72
2023/12/10 22:03:50;;;;;;;15.70;4.60;;;6.70;99.90;;;;;;4937389;29;20447;-72
2023/12/10 22:06:16;;;;;;;12.57;3.73;;;6.80;99.90;;;;;;4945214;28;20478;-72
2023/12/10 22:08:43;;;;;;;13.53;3.80;;;6.70;99.90;;;;;;4938160;29;20483;-72
2023/12/10 22:11:13;;;;;;;13.33;5.00;;;6.70;99.90;;;;;;4937599;29;21006;-71
2023/12/10 22:13:40;;;;;;;16.83;6.07;;;6.70;99.90;;;;;;4938729;29;20472;-70
2023/12/10 22:16:08;;;;;;;10.40;3.87;;;6.80;99.90;;;;;;4941655;29;20509;-71
2023/12/10 22:18:34;;;;;;;17.97;4.70;;;6.80;99.90;;;;;;4933634;29;20467;-72
2023/12/10 22:21:01;;;;;;;19.93;4.30;;;6.80;99.90;;;;;;4937198;29;20460;-72
2023/12/10 22:23:27;;;;;;;18.83;3.67;;;6.80;99.90;;;;;;4936868;29;20941;-71
2023/12/10 22:25:54;;;;;;;17.87;4.20;;;6.80;99.90;;;;;;4939099;28;20917;-72
2023/12/10 22:28:23;;;;;;;20.20;4.43;;;6.80;99.90;;;;;;4935578;29;21047;-73